createdAt,value
2023-03-27T00:00:53.000Z,151
2023-03-27T00:02:09.000Z,148
2023-03-27T00:03:25.000Z,148
2023-03-27T00:04:41.000Z,148
2023-03-27T00:05:58.000Z,149
2023-03-27T00:07:14.000Z,150
2023-03-27T00:08:30.000Z,149
2023-03-27T00:09:46.000Z,150
2023-03-27T00:11:03.000Z,148
2023-03-27T00:12:18.000Z,148
2023-03-27T00:13:34.000Z,146
2023-03-27T00:14:50.000Z,147
2023-03-27T00:16:07.000Z,146
2023-03-27T00:17:23.000Z,148
2023-03-27T00:18:39.000Z,150
2023-03-27T00:19:55.000Z,150
2023-03-27T00:21:12.000Z,146
2023-03-27T00:22:28.000Z,151
2023-03-27T00:23:44.000Z,149
2023-03-27T00:25:00.000Z,147
2023-03-27T00:26:16.000Z,147
2023-03-27T00:27:33.000Z,145
2023-03-27T00:28:48.000Z,146
2023-03-27T00:30:04.000Z,147
2023-03-27T00:31:20.000Z,150
2023-03-27T00:32:37.000Z,151
2023-03-27T00:33:53.000Z,147
2023-03-27T00:35:09.000Z,147
2023-03-27T00:36:25.000Z,151
2023-03-27T00:37:42.000Z,151
2023-03-27T00:38:58.000Z,153
2023-03-27T00:40:14.000Z,149
2023-03-27T00:41:30.000Z,146
2023-03-27T00:42:47.000Z,151
2023-03-27T00:44:03.000Z,147
2023-03-27T00:45:18.000Z,149
2023-03-27T00:46:34.000Z,150
2023-03-27T00:47:50.000Z,146
2023-03-27T00:49:07.000Z,144
2023-03-27T00:50:23.000Z,147
2023-03-27T00:51:39.000Z,145
2023-03-27T00:52:55.000Z,151
2023-03-27T00:54:12.000Z,151
2023-03-27T00:55:28.000Z,148
2023-03-27T00:56:44.000Z,144
2023-03-27T00:58:00.000Z,146
2023-03-27T00:59:17.000Z,146
2023-03-27T01:00:33.000Z,147
2023-03-27T01:01:48.000Z,148
2023-03-27T01:03:04.000Z,145
2023-03-27T01:04:21.000Z,146
2023-03-27T01:05:37.000Z,151
2023-03-27T01:08:09.000Z,148
2023-03-27T01:09:25.000Z,146
2023-03-27T01:10:42.000Z,147
2023-03-27T01:11:58.000Z,151
2023-03-27T01:13:14.000Z,151
2023-03-27T01:14:30.000Z,151
2023-03-27T01:15:47.000Z,150
2023-03-27T01:17:03.000Z,146
2023-03-27T01:18:18.000Z,151
2023-03-27T01:19:34.000Z,151
2023-03-27T01:20:51.000Z,151
2023-03-27T01:22:07.000Z,152
2023-03-27T01:23:23.000Z,151
2023-03-27T01:24:39.000Z,151
2023-03-27T01:25:56.000Z,148
2023-03-27T01:27:12.000Z,151
2023-03-27T01:28:28.000Z,150
2023-03-27T01:29:44.000Z,144
2023-03-27T01:31:00.000Z,146
2023-03-27T01:32:17.000Z,148
2023-03-27T01:33:33.000Z,151
2023-03-27T01:34:48.000Z,151
2023-03-27T01:36:04.000Z,151
2023-03-27T01:37:21.000Z,148
2023-03-27T01:38:37.000Z,148
2023-03-27T01:39:53.000Z,150
2023-03-27T01:41:09.000Z,151
2023-03-27T01:42:26.000Z,148
2023-03-27T01:43:42.000Z,146
2023-03-27T01:44:58.000Z,147
2023-03-27T01:46:14.000Z,151
2023-03-27T01:47:31.000Z,150
2023-03-27T01:48:47.000Z,145
2023-03-27T01:50:03.000Z,146
2023-03-27T01:51:18.000Z,148
2023-03-27T01:52:35.000Z,147
2023-03-27T01:53:51.000Z,150
2023-03-27T01:55:07.000Z,148
2023-03-27T01:56:23.000Z,151
2023-03-27T01:57:39.000Z,151
2023-03-27T01:58:56.000Z,152
2023-03-27T02:00:12.000Z,151
2023-03-27T02:01:28.000Z,149
2023-03-27T02:02:44.000Z,149
2023-03-27T02:04:01.000Z,148
2023-03-27T02:05:17.000Z,151
2023-03-27T02:06:33.000Z,149
2023-03-27T02:07:48.000Z,152
2023-03-27T02:09:05.000Z,149
2023-03-27T02:10:21.000Z,148
2023-03-27T02:11:37.000Z,151
2023-03-27T02:12:53.000Z,151
2023-03-27T02:14:10.000Z,149
2023-03-27T02:15:26.000Z,148
2023-03-27T02:16:42.000Z,152
2023-03-27T02:17:58.000Z,152
2023-03-27T02:19:14.000Z,151
2023-03-27T02:20:31.000Z,152
2023-03-27T02:21:47.000Z,152
2023-03-27T02:23:03.000Z,151
2023-03-27T02:24:18.000Z,151
2023-03-27T02:25:35.000Z,148
2023-03-27T02:26:51.000Z,151
2023-03-27T02:28:07.000Z,148
2023-03-27T02:30:40.000Z,149
2023-03-27T02:31:56.000Z,149
2023-03-27T02:33:12.000Z,152
2023-03-27T02:34:28.000Z,149
2023-03-27T02:35:45.000Z,148
2023-03-27T02:37:01.000Z,153
2023-03-27T02:38:17.000Z,151
2023-03-27T02:39:33.000Z,149
2023-03-27T02:40:48.000Z,148
2023-03-27T02:42:05.000Z,152
2023-03-27T02:43:21.000Z,151
2023-03-27T02:44:37.000Z,152
2023-03-27T02:45:53.000Z,150
2023-03-27T02:47:10.000Z,146
2023-03-27T02:49:42.000Z,146
2023-03-27T02:50:58.000Z,149
2023-03-27T02:52:15.000Z,150
2023-03-27T02:53:31.000Z,148
2023-03-27T02:54:47.000Z,151
2023-03-27T02:56:03.000Z,151
2023-03-27T02:57:19.000Z,151
2023-03-27T02:58:35.000Z,151
2023-03-27T02:59:51.000Z,148
2023-03-27T03:01:07.000Z,150
2023-03-27T03:02:23.000Z,148
2023-03-27T03:03:40.000Z,146
2023-03-27T03:04:56.000Z,151
2023-03-27T03:06:12.000Z,148
2023-03-27T03:07:28.000Z,149
2023-03-27T03:10:01.000Z,147
2023-03-27T03:11:17.000Z,149
2023-03-27T03:12:33.000Z,151
2023-03-27T03:13:49.000Z,148
2023-03-27T03:15:05.000Z,151
2023-03-27T03:16:21.000Z,148
2023-03-27T03:17:37.000Z,149
2023-03-27T03:18:54.000Z,152
2023-03-27T03:20:09.000Z,153
2023-03-27T03:21:25.000Z,153
2023-03-27T03:22:41.000Z,153
2023-03-27T03:23:58.000Z,153
2023-03-27T03:25:14.000Z,153
2023-03-27T03:26:30.000Z,152
2023-03-27T03:27:46.000Z,149
2023-03-27T03:29:02.000Z,151
2023-03-27T03:30:19.000Z,151
2023-03-27T03:31:35.000Z,149
2023-03-27T03:32:51.000Z,148
2023-03-27T03:34:07.000Z,151
2023-03-27T03:35:24.000Z,151
2023-03-27T03:36:39.000Z,151
2023-03-27T03:37:55.000Z,147
2023-03-27T03:39:11.000Z,146
2023-03-27T03:40:28.000Z,148
2023-03-27T03:41:44.000Z,150
2023-03-27T03:43:00.000Z,149
2023-03-27T03:44:16.000Z,148
2023-03-27T03:45:33.000Z,151
2023-03-27T03:46:49.000Z,150
2023-03-27T03:48:05.000Z,147
2023-03-27T03:49:21.000Z,147
2023-03-27T03:50:37.000Z,149
2023-03-27T03:51:54.000Z,148
2023-03-27T03:53:09.000Z,148
2023-03-27T03:54:25.000Z,147
2023-03-27T03:55:41.000Z,149
2023-03-27T03:56:58.000Z,149
2023-03-27T03:58:14.000Z,151
2023-03-27T03:59:30.000Z,150
2023-03-27T04:00:46.000Z,148
2023-03-27T04:02:03.000Z,150
2023-03-27T04:03:19.000Z,149
2023-03-27T04:04:35.000Z,149
2023-03-27T04:05:51.000Z,151
2023-03-27T04:07:08.000Z,151
2023-03-27T04:08:24.000Z,149
2023-03-27T04:09:39.000Z,146
2023-03-27T04:10:55.000Z,150
2023-03-27T04:12:11.000Z,153
2023-03-27T04:13:28.000Z,152
2023-03-27T04:14:44.000Z,151
2023-03-27T04:16:00.000Z,149
2023-03-27T04:17:16.000Z,153
2023-03-27T04:18:33.000Z,152
2023-03-27T04:19:49.000Z,153
2023-03-27T04:21:05.000Z,153
2023-03-27T04:22:21.000Z,152
2023-03-27T04:23:38.000Z,149
2023-03-27T04:24:54.000Z,152
2023-03-27T04:26:09.000Z,150
2023-03-27T04:27:25.000Z,151
2023-03-27T04:28:42.000Z,149
2023-03-27T04:29:58.000Z,147
2023-03-27T04:31:14.000Z,148
2023-03-27T04:32:30.000Z,151
2023-03-27T04:33:46.000Z,150
2023-03-27T04:35:03.000Z,148
2023-03-27T04:36:19.000Z,151
2023-03-27T04:37:35.000Z,151
2023-03-27T04:38:51.000Z,150
2023-03-27T04:40:08.000Z,148
2023-03-27T04:41:24.000Z,149
2023-03-27T04:42:39.000Z,151
2023-03-27T04:43:55.000Z,150
2023-03-27T04:45:12.000Z,152
2023-03-27T04:46:28.000Z,153
2023-03-27T04:47:44.000Z,151
2023-03-27T04:49:00.000Z,148
2023-03-27T04:50:17.000Z,150
2023-03-27T04:51:33.000Z,152
2023-03-27T04:52:49.000Z,156
2023-03-27T04:54:05.000Z,159
2023-03-27T04:55:21.000Z,159
2023-03-27T04:56:38.000Z,159
2023-03-27T04:57:54.000Z,169
2023-03-27T04:59:09.000Z,132
2023-03-27T05:00:25.000Z,15
2023-03-27T05:01:42.000Z,19
2023-03-27T05:02:58.000Z,22
2023-03-27T05:04:14.000Z,28
2023-03-27T05:05:30.000Z,39
2023-03-27T05:06:47.000Z,46
2023-03-27T05:08:03.000Z,55
2023-03-27T05:09:19.000Z,64
2023-03-27T05:10:35.000Z,79
2023-03-27T05:11:52.000Z,95
2023-03-27T05:13:08.000Z,111
2023-03-27T05:14:24.000Z,135
2023-03-27T05:15:39.000Z,157
2023-03-27T05:16:56.000Z,175
2023-03-27T05:18:12.000Z,201
2023-03-27T05:19:28.000Z,228
2023-03-27T05:20:44.000Z,252
2023-03-27T05:22:00.000Z,279
2023-03-27T05:23:17.000Z,300
2023-03-27T05:24:33.000Z,328
2023-03-27T05:25:49.000Z,349
2023-03-27T05:27:05.000Z,360
2023-03-27T05:28:22.000Z,367
2023-03-27T05:29:38.000Z,376
2023-03-27T05:30:54.000Z,437
2023-03-27T05:32:09.000Z,458
2023-03-27T05:33:26.000Z,467
2023-03-27T05:34:42.000Z,473
2023-03-27T05:35:58.000Z,524
2023-03-27T05:37:14.000Z,570
2023-03-27T05:38:31.000Z,631
2023-03-27T05:39:47.000Z,636
2023-03-27T05:41:03.000Z,753
2023-03-27T05:42:19.000Z,862
2023-03-27T05:43:35.000Z,940
2023-03-27T05:44:52.000Z,1008
2023-03-27T05:46:08.000Z,1019
2023-03-27T05:47:24.000Z,1003
2023-03-27T05:48:39.000Z,1009
2023-03-27T05:49:56.000Z,1030
2023-03-27T05:51:12.000Z,1083
2023-03-27T05:52:28.000Z,1159
2023-03-27T05:53:44.000Z,1223
2023-03-27T05:55:01.000Z,1283
2023-03-27T05:56:17.000Z,1372
2023-03-27T05:57:33.000Z,1471
2023-03-27T05:58:49.000Z,1548
2023-03-27T06:00:06.000Z,1634
2023-03-27T06:01:22.000Z,1641
2023-03-27T06:02:38.000Z,1705
2023-03-27T06:03:54.000Z,1770
2023-03-27T06:05:09.000Z,1876
2023-03-27T06:06:26.000Z,1964
2023-03-27T06:07:42.000Z,1861
2023-03-27T06:08:58.000Z,1945
2023-03-27T06:10:14.000Z,2016
2023-03-27T06:11:31.000Z,1932
2023-03-27T06:12:47.000Z,1781
2023-03-27T06:14:03.000Z,1654
2023-03-27T06:15:19.000Z,1599
2023-03-27T06:16:36.000Z,1609
2023-03-27T06:17:52.000Z,1657
2023-03-27T06:19:08.000Z,1685
2023-03-27T06:20:24.000Z,1660
2023-03-27T06:21:40.000Z,1665
2023-03-27T06:22:56.000Z,1816
2023-03-27T06:24:12.000Z,1903
2023-03-27T06:25:28.000Z,1931
2023-03-27T06:26:44.000Z,1969
2023-03-27T06:28:01.000Z,1945
2023-03-27T06:29:17.000Z,1959
2023-03-27T06:30:33.000Z,1981
2023-03-27T06:31:49.000Z,1999
2023-03-27T06:33:06.000Z,2018
2023-03-27T06:34:22.000Z,2038
2023-03-27T06:35:38.000Z,2056
2023-03-27T06:36:54.000Z,2074
2023-03-27T06:38:10.000Z,2095
2023-03-27T06:39:26.000Z,2120
2023-03-27T06:40:42.000Z,2149
2023-03-27T06:41:58.000Z,2170
2023-03-27T06:43:15.000Z,2197
2023-03-27T06:44:31.000Z,2221
2023-03-27T06:45:47.519Z,2240
2023-03-27T06:47:03.000Z,2263
2023-03-27T06:48:19.000Z,2281
2023-03-27T06:49:36.000Z,2301
2023-03-27T06:50:52.000Z,2329
2023-03-27T06:52:08.000Z,2350
2023-03-27T06:53:24.000Z,2367
2023-03-27T06:54:40.000Z,2387
2023-03-27T06:55:56.000Z,2410
2023-03-27T06:57:12.000Z,2439
2023-03-27T06:58:28.000Z,2466
2023-03-27T06:59:45.000Z,2509
2023-03-27T07:01:01.000Z,2565
2023-03-27T07:02:17.000Z,2657
2023-03-27T07:03:33.000Z,2750
2023-03-27T07:04:50.000Z,2780
2023-03-27T07:06:06.000Z,2821
2023-03-27T07:07:22.000Z,2819
2023-03-27T07:08:38.000Z,2701
2023-03-27T07:09:54.000Z,2749
2023-03-27T07:11:10.000Z,3002
2023-03-27T07:12:26.000Z,3094
2023-03-27T07:13:42.000Z,2940
2023-03-27T07:14:58.000Z,2812
2023-03-27T07:16:15.000Z,2658
2023-03-27T07:17:31.000Z,2637
2023-03-27T07:18:47.000Z,2669
2023-03-27T07:20:03.000Z,2739
2023-03-27T07:21:20.000Z,2788
2023-03-27T07:22:36.000Z,2762
2023-03-27T07:23:52.000Z,2757
2023-03-27T07:25:08.000Z,2789
2023-03-27T07:26:25.000Z,2723
2023-03-27T07:27:40.000Z,2686
2023-03-27T07:28:56.000Z,2645
2023-03-27T07:30:12.000Z,2629
2023-03-27T07:31:29.000Z,2627
2023-03-27T07:32:45.000Z,2640
2023-03-27T07:34:01.000Z,2671
2023-03-27T07:35:16.000Z,2673
2023-03-27T07:36:32.000Z,2676
2023-03-27T07:37:49.000Z,2677
2023-03-27T07:39:05.000Z,2676
2023-03-27T07:40:21.000Z,2686
2023-03-27T07:41:37.000Z,2694
2023-03-27T07:42:54.000Z,2706
2023-03-27T07:44:10.000Z,2719
2023-03-27T07:45:26.000Z,2722
2023-03-27T07:46:42.000Z,2725
2023-03-27T07:47:59.000Z,2737
2023-03-27T07:49:15.000Z,2743
2023-03-27T07:50:31.000Z,2775
2023-03-27T07:51:46.000Z,2824
2023-03-27T07:53:03.000Z,2918
2023-03-27T07:54:19.000Z,2951
2023-03-27T07:55:35.000Z,2854
2023-03-27T07:56:51.000Z,2866
2023-03-27T07:58:07.000Z,3144
2023-03-27T07:59:24.000Z,3327
2023-03-27T08:00:40.000Z,2925
2023-03-27T08:01:56.000Z,2647
2023-03-27T08:03:12.000Z,2823
2023-03-27T08:04:29.000Z,2887
2023-03-27T08:05:45.000Z,2893
2023-03-27T08:07:01.000Z,2764
2023-03-27T08:08:16.000Z,2785
2023-03-27T08:09:33.000Z,2984
2023-03-27T08:10:49.000Z,2822
2023-03-27T08:12:05.000Z,2856
2023-03-27T08:13:21.000Z,3071
2023-03-27T08:14:38.000Z,3095
2023-03-27T08:15:54.000Z,3043
2023-03-27T08:17:10.000Z,3265
2023-03-27T08:18:26.000Z,3595
2023-03-27T08:19:42.000Z,4551
2023-03-27T08:20:59.000Z,3324
2023-03-27T08:22:15.000Z,5475
2023-03-27T08:23:31.000Z,6228
2023-03-27T08:24:46.000Z,5606
2023-03-27T08:26:03.000Z,5325
2023-03-27T08:27:19.000Z,3332
2023-03-27T08:28:35.000Z,5560
2023-03-27T08:29:51.000Z,6923
2023-03-27T08:31:08.000Z,7722
2023-03-27T08:33:40.000Z,8050
2023-03-27T08:34:56.000Z,8899
2023-03-27T08:36:13.000Z,5773
2023-03-27T08:37:29.000Z,5204
2023-03-27T08:38:45.000Z,7254
2023-03-27T08:40:01.000Z,7234
2023-03-27T08:41:16.000Z,8384
2023-03-27T08:42:33.000Z,6093
2023-03-27T08:43:49.000Z,4784
2023-03-27T08:47:38.000Z,5563
2023-03-27T08:48:54.000Z,7545
2023-03-27T08:50:10.000Z,5609
2023-03-27T08:51:25.000Z,4787
2023-03-27T08:52:41.000Z,3904
2023-03-27T08:53:57.000Z,3842
2023-03-27T08:55:13.000Z,4056
2023-03-27T08:56:29.000Z,3952
2023-03-27T08:57:46.000Z,6297
2023-03-27T08:59:02.000Z,7955
2023-03-27T09:00:18.000Z,4661
2023-03-27T09:01:34.000Z,6231
2023-03-27T09:02:51.000Z,10278
2023-03-27T09:04:07.000Z,8839
2023-03-27T09:05:22.000Z,6439
2023-03-27T09:06:37.000Z,4883
2023-03-27T09:07:53.000Z,6393
2023-03-27T09:09:10.000Z,6150
2023-03-27T09:10:26.000Z,5911
2023-03-27T09:11:42.000Z,5090
2023-03-27T09:12:58.000Z,5211
2023-03-27T09:14:15.000Z,5002
2023-03-27T09:15:31.000Z,8020
2023-03-27T09:16:47.000Z,8595
2023-03-27T09:18:03.000Z,8658
2023-03-27T09:19:20.000Z,8350
2023-03-27T09:20:36.000Z,7244
2023-03-27T09:21:52.000Z,6418
2023-03-27T09:23:07.000Z,5536
2023-03-27T09:24:24.000Z,5281
2023-03-27T09:25:40.000Z,5391
2023-03-27T09:26:56.000Z,4950
2023-03-27T09:28:12.000Z,4334
2023-03-27T09:29:28.000Z,4456
2023-03-27T09:30:45.000Z,4672
2023-03-27T09:32:01.000Z,4564
2023-03-27T09:33:17.000Z,7250
2023-03-27T09:34:33.000Z,8511
2023-03-27T09:35:50.000Z,7639
2023-03-27T09:37:06.000Z,7516
2023-03-27T09:38:22.000Z,10689
2023-03-27T09:39:37.000Z,10116
2023-03-27T09:40:54.000Z,9209
2023-03-27T09:42:10.000Z,8502
2023-03-27T09:43:26.000Z,6669
2023-03-27T09:44:42.000Z,5905
2023-03-27T09:45:59.000Z,4749
2023-03-27T09:47:15.000Z,6311
2023-03-27T09:48:31.000Z,6457
2023-03-27T09:49:47.000Z,5685
2023-03-27T09:51:03.000Z,8749
2023-03-27T09:52:20.000Z,9265
2023-03-27T09:53:36.000Z,7986
2023-03-27T09:54:52.000Z,7454
2023-03-27T09:56:07.000Z,6869
2023-03-27T09:57:24.000Z,5678
2023-03-27T09:58:40.000Z,4253
2023-03-27T09:59:56.000Z,4933
2023-03-27T10:01:12.000Z,7639
2023-03-27T10:02:29.000Z,5857
2023-03-27T10:03:45.000Z,4773
2023-03-27T10:05:01.000Z,7274
2023-03-27T10:06:17.000Z,7399
2023-03-27T10:07:34.000Z,7574
2023-03-27T10:08:50.000Z,6162
2023-03-27T10:10:06.000Z,6835
2023-03-27T10:11:22.000Z,6132
2023-03-27T10:12:38.000Z,5930
2023-03-27T10:13:54.000Z,5431
2023-03-27T10:15:10.000Z,7411
2023-03-27T10:16:26.000Z,5412
2023-03-27T10:17:42.000Z,6020
2023-03-27T10:18:59.000Z,9378
2023-03-27T10:20:15.000Z,7501
2023-03-27T10:21:31.000Z,6293
2023-03-27T10:22:47.000Z,6912
2023-03-27T10:24:04.000Z,5741
2023-03-27T10:25:20.000Z,7388
2023-03-27T10:26:36.000Z,5915
2023-03-27T10:29:09.000Z,8131
2023-03-27T10:30:24.000Z,7226
2023-03-27T10:31:40.000Z,9130
2023-03-27T10:32:56.000Z,9855
2023-03-27T10:34:12.000Z,7699
2023-03-27T10:35:29.000Z,7133
2023-03-27T10:36:45.000Z,10407
2023-03-27T10:39:17.000Z,6478
2023-03-27T10:40:34.000Z,8734
2023-03-27T10:41:50.000Z,13358
2023-03-27T10:43:06.000Z,12254
2023-03-27T10:44:22.000Z,10612
2023-03-27T10:45:39.000Z,11814
2023-03-27T10:46:54.000Z,12230
2023-03-27T10:48:10.000Z,10048
2023-03-27T10:50:43.000Z,6618
2023-03-27T10:51:58.000Z,6211
2023-03-27T10:53:13.000Z,4302
2023-03-27T10:54:29.000Z,4882
2023-03-27T10:55:46.000Z,4303
2023-03-27T10:57:02.000Z,4189
2023-03-27T10:59:34.000Z,4926
2023-03-27T11:00:50.000Z,5031
2023-03-27T11:02:07.000Z,7730
2023-03-27T11:03:23.000Z,8876
2023-03-27T11:04:39.000Z,7757
2023-03-27T11:05:55.000Z,6319
2023-03-27T11:07:12.000Z,4761
2023-03-27T11:08:28.000Z,4070
2023-03-27T11:09:43.000Z,4226
2023-03-27T11:10:59.000Z,4608
2023-03-27T11:12:16.000Z,4362
2023-03-27T11:13:32.000Z,3715
2023-03-27T11:14:48.000Z,3707
2023-03-27T11:16:04.000Z,4183
2023-03-27T11:17:21.000Z,4529
2023-03-27T11:18:37.000Z,4837
2023-03-27T11:19:52.000Z,4839
2023-03-27T11:21:07.000Z,4681
2023-03-27T11:22:24.000Z,4735
2023-03-27T11:23:40.000Z,5758
2023-03-27T11:24:56.000Z,5802
2023-03-27T11:26:12.000Z,5312
2023-03-27T11:27:28.000Z,4963
2023-03-27T11:28:45.000Z,5092
2023-03-27T11:30:01.000Z,5525
2023-03-27T11:31:17.000Z,5836
2023-03-27T11:32:33.000Z,5927
2023-03-27T11:33:50.000Z,5851
2023-03-27T11:35:06.000Z,7195
2023-03-27T11:36:22.000Z,11425
2023-03-27T11:37:37.000Z,12747
2023-03-27T11:38:54.000Z,12912
2023-03-27T11:40:10.000Z,14695
2023-03-27T11:41:26.000Z,10785
2023-03-27T11:42:42.000Z,6754
2023-03-27T11:43:59.000Z,5734
2023-03-27T11:45:15.000Z,6499
2023-03-27T11:46:30.000Z,5625
2023-03-27T11:47:45.000Z,4734
2023-03-27T11:49:01.000Z,4454
2023-03-27T11:50:17.000Z,3864
2023-03-27T11:51:32.000Z,3288
2023-03-27T11:52:47.000Z,3526
2023-03-27T11:54:03.000Z,2849
2023-03-27T11:55:20.000Z,3250
2023-03-27T11:56:36.000Z,4325
2023-03-27T11:57:52.000Z,5759
2023-03-27T11:59:08.000Z,4317
2023-03-27T12:00:25.000Z,3681
2023-03-27T12:01:41.000Z,3635
2023-03-27T12:02:57.000Z,3688
2023-03-27T12:04:13.000Z,3814
2023-03-27T12:05:30.000Z,4084
2023-03-27T12:06:46.000Z,4631
2023-03-27T12:08:02.000Z,4628
2023-03-27T12:09:17.000Z,3728
2023-03-27T12:10:34.000Z,3394
2023-03-27T12:11:50.000Z,3411
2023-03-27T12:13:06.000Z,3474
2023-03-27T12:15:38.000Z,3490
2023-03-27T12:16:55.000Z,3485
2023-03-27T12:18:11.000Z,3470
2023-03-27T12:19:27.000Z,3473
2023-03-27T12:20:43.000Z,3481
2023-03-27T12:22:00.000Z,3505
2023-03-27T12:23:16.000Z,3523
2023-03-27T12:24:32.000Z,3540
2023-03-27T12:25:47.000Z,3558
2023-03-27T12:27:04.000Z,3591
2023-03-27T12:28:20.000Z,3642
2023-03-27T12:29:36.000Z,3705
2023-03-27T12:30:52.000Z,3781
2023-03-27T12:32:09.000Z,3864
2023-03-27T12:34:41.000Z,4084
2023-03-27T12:35:57.000Z,4203
2023-03-27T12:37:13.000Z,4371
2023-03-27T12:38:30.000Z,4598
2023-03-27T12:39:46.000Z,4882
2023-03-27T12:41:02.000Z,5293
2023-03-27T12:42:17.000Z,5605
2023-03-27T12:43:34.000Z,6126
2023-03-27T12:44:50.000Z,6070
2023-03-27T12:46:06.000Z,7792
2023-03-27T12:47:22.000Z,7990
2023-03-27T12:48:39.000Z,10968
2023-03-27T12:49:55.000Z,12308
2023-03-27T12:51:11.000Z,12056
2023-03-27T12:52:27.000Z,13897
2023-03-27T12:53:44.000Z,13911
2023-03-27T12:55:00.000Z,12845
2023-03-27T12:56:16.000Z,12060
2023-03-27T12:57:32.000Z,10540
2023-03-27T12:58:48.000Z,8821
2023-03-27T13:00:04.000Z,7667
2023-03-27T13:01:20.000Z,8670
2023-03-27T13:02:36.000Z,6162
2023-03-27T13:03:52.000Z,6380
2023-03-27T13:05:09.000Z,5901
2023-03-27T13:06:25.000Z,4695
2023-03-27T13:07:41.000Z,3249
2023-03-27T13:08:57.000Z,1927
2023-03-27T13:10:14.000Z,2110
2023-03-27T13:11:30.000Z,1241
2023-03-27T13:12:46.000Z,475
2023-03-27T13:14:02.000Z,1679
2023-03-27T13:16:34.000Z,6666
2023-03-27T13:17:50.000Z,6087
2023-03-27T13:19:06.000Z,5493
2023-03-27T13:20:22.000Z,4464
2023-03-27T13:21:39.000Z,4114
2023-03-27T13:22:55.000Z,3965
2023-03-27T13:24:11.000Z,3897
2023-03-27T13:25:27.000Z,3882
2023-03-27T13:26:43.000Z,3818
2023-03-27T13:27:58.000Z,3739
2023-03-27T13:29:14.000Z,3758
2023-03-27T13:30:29.000Z,3783
2023-03-27T13:31:45.000Z,3806
2023-03-27T13:33:01.000Z,3813
2023-03-27T13:34:17.000Z,3842
2023-03-27T13:35:33.000Z,3860
2023-03-27T13:36:50.000Z,3905
2023-03-27T13:38:06.000Z,3964
2023-03-27T13:39:22.000Z,4028
2023-03-27T13:40:38.000Z,4080
2023-03-27T13:41:55.000Z,4116
2023-03-27T13:43:11.000Z,4150
2023-03-27T13:44:27.000Z,4214
2023-03-27T13:45:43.000Z,4321
2023-03-27T13:47:00.000Z,4462
2023-03-27T13:48:15.000Z,4613
2023-03-27T13:49:31.000Z,4820
2023-03-27T13:50:47.000Z,5136
2023-03-27T13:52:03.000Z,5611
2023-03-27T13:53:20.000Z,2228
2023-03-27T13:54:36.000Z,6260
2023-03-27T13:55:52.000Z,79511
2023-03-27T13:57:08.000Z,79073
2023-03-27T13:58:24.000Z,78792
2023-03-27T13:59:39.000Z,77677
2023-03-27T14:00:55.000Z,78320
2023-03-27T14:02:11.000Z,80578
2023-03-27T14:03:28.000Z,81605
2023-03-27T14:04:44.000Z,80847
2023-03-27T14:06:00.000Z,75933
2023-03-27T14:07:16.000Z,60951
2023-03-27T14:08:32.000Z,10283
2023-03-27T14:09:47.000Z,7119
2023-03-27T14:11:03.000Z,6252
2023-03-27T14:12:19.000Z,5405
2023-03-27T14:13:36.000Z,4412
2023-03-27T14:14:52.000Z,3806
2023-03-27T14:16:08.000Z,3833
2023-03-27T14:17:24.000Z,3644
2023-03-27T14:18:40.000Z,3737
2023-03-27T14:19:57.000Z,3973
2023-03-27T14:22:29.000Z,7294
2023-03-27T14:23:45.000Z,74812
2023-03-27T14:25:02.000Z,27535
2023-03-27T14:26:17.000Z,34531
2023-03-27T14:27:33.000Z,32973
2023-03-27T14:28:49.000Z,31906
2023-03-27T14:30:06.000Z,20756
2023-03-27T14:31:22.000Z,17852
2023-03-27T14:32:38.000Z,37351
2023-03-27T14:33:54.000Z,23165
2023-03-27T14:35:11.000Z,17049
2023-03-27T14:36:26.000Z,30668
2023-03-27T14:37:41.000Z,30344
2023-03-27T14:38:57.000Z,73380
2023-03-27T14:40:14.000Z,36030
2023-03-27T14:41:30.000Z,34955
2023-03-27T14:42:46.000Z,27099
2023-03-27T14:44:02.000Z,21419
2023-03-27T14:45:18.000Z,10519
2023-03-27T14:46:35.000Z,18532
2023-03-27T14:47:51.000Z,24503
2023-03-27T14:49:06.000Z,26012
2023-03-27T14:50:21.000Z,28899
2023-03-27T14:51:38.000Z,7513
2023-03-27T14:52:54.000Z,10876
2023-03-27T14:54:10.000Z,26256
2023-03-27T14:55:26.000Z,24357
2023-03-27T14:56:43.000Z,30017
2023-03-27T14:57:59.000Z,32476
2023-03-27T14:59:15.000Z,21008
2023-03-27T15:00:31.000Z,27755
2023-03-27T15:01:48.000Z,27767
2023-03-27T15:03:04.000Z,23799
2023-03-27T15:04:20.000Z,23958
2023-03-27T15:05:36.000Z,23240
2023-03-27T15:06:51.000Z,21452
2023-03-27T15:08:08.000Z,29204
2023-03-27T15:09:24.000Z,17174
2023-03-27T15:10:40.000Z,8509
2023-03-27T15:11:56.000Z,7665
2023-03-27T15:13:13.000Z,7340
2023-03-27T15:15:45.000Z,7111
2023-03-27T15:18:18.000Z,7023
2023-03-27T15:19:34.000Z,7060
2023-03-27T15:20:50.000Z,7121
2023-03-27T15:22:06.000Z,7081
2023-03-27T15:23:22.000Z,7066
2023-03-27T15:24:38.000Z,7007
2023-03-27T15:25:54.000Z,6898
2023-03-27T15:27:10.000Z,7173
2023-03-27T15:28:26.000Z,8770
2023-03-27T15:29:43.000Z,10376
2023-03-27T15:30:59.000Z,10769
2023-03-27T15:32:15.000Z,7016
2023-03-27T15:33:31.000Z,10420
2023-03-27T15:34:48.000Z,9280
2023-03-27T15:36:04.000Z,3637
2023-03-27T15:37:20.000Z,8384
2023-03-27T15:38:36.000Z,12430
2023-03-27T15:39:52.000Z,9596
2023-03-27T15:41:08.000Z,7150
2023-03-27T15:42:24.000Z,6305
2023-03-27T15:43:40.000Z,5540
2023-03-27T15:44:57.000Z,6283
2023-03-27T15:46:13.000Z,7474
2023-03-27T15:47:29.000Z,9106
2023-03-27T15:48:45.000Z,12242
2023-03-27T15:50:01.000Z,11859
2023-03-27T15:51:18.000Z,10918
2023-03-27T15:52:34.000Z,10261
2023-03-27T15:53:50.000Z,10306
2023-03-27T15:55:06.000Z,7238
2023-03-27T15:56:22.000Z,3777
2023-03-27T15:57:38.000Z,2321
2023-03-27T15:58:54.000Z,1467
2023-03-27T16:00:10.000Z,1084
2023-03-27T16:01:27.000Z,976
2023-03-27T16:02:43.000Z,1097
2023-03-27T16:03:59.000Z,1114
2023-03-27T16:05:14.000Z,1036
2023-03-27T16:06:31.000Z,1176
2023-03-27T16:07:47.000Z,1578
2023-03-27T16:09:03.000Z,1723
2023-03-27T16:10:19.000Z,1542
2023-03-27T16:11:35.000Z,1854
2023-03-27T16:12:52.000Z,2334
2023-03-27T16:14:08.000Z,2763
2023-03-27T16:15:24.000Z,2724
2023-03-27T16:16:40.000Z,2801
2023-03-27T16:17:57.000Z,2945
2023-03-27T16:19:13.000Z,3347
2023-03-27T16:20:29.000Z,2804
2023-03-27T16:21:44.000Z,7201
2023-03-27T16:23:01.000Z,5449
2023-03-27T16:24:17.000Z,6458
2023-03-27T16:25:33.000Z,5565
2023-03-27T16:26:49.000Z,4609
2023-03-27T16:28:06.000Z,3958
2023-03-27T16:29:22.000Z,3412
2023-03-27T16:30:38.000Z,3041
2023-03-27T16:31:54.000Z,2837
2023-03-27T16:33:10.000Z,2619
2023-03-27T16:34:27.000Z,2564
2023-03-27T16:35:43.000Z,2664
2023-03-27T16:36:59.000Z,2789
2023-03-27T16:38:14.000Z,1369
2023-03-27T16:39:31.000Z,5008
2023-03-27T16:40:47.000Z,11371
2023-03-27T16:42:03.000Z,10807
2023-03-27T16:43:19.000Z,11102
2023-03-27T16:44:36.000Z,11124
2023-03-27T16:45:52.000Z,11778
2023-03-27T16:47:08.000Z,9980
2023-03-27T16:48:24.000Z,9730
2023-03-27T16:49:41.000Z,10144
2023-03-27T16:50:57.000Z,9763
2023-03-27T16:52:13.000Z,10761
2023-03-27T16:53:29.000Z,12232
2023-03-27T16:54:45.000Z,10946
2023-03-27T16:56:01.000Z,11436
2023-03-27T16:57:17.000Z,9837
2023-03-27T16:58:33.000Z,7907
2023-03-27T16:59:49.000Z,7602
2023-03-27T17:01:06.000Z,9780
2023-03-27T17:02:22.000Z,7433
2023-03-27T17:03:38.000Z,8337
2023-03-27T17:04:54.000Z,7406
2023-03-27T17:06:11.000Z,5865
2023-03-27T17:07:27.000Z,5669
2023-03-27T17:08:43.000Z,5297
2023-03-27T17:09:59.000Z,5874
2023-03-27T17:11:15.000Z,6059
2023-03-27T17:12:31.000Z,5158
2023-03-27T17:13:47.000Z,5557
2023-03-27T17:15:03.000Z,5613
2023-03-27T17:16:19.000Z,4893
2023-03-27T17:17:36.000Z,2150
2023-03-27T17:18:52.000Z,1939
2023-03-27T17:20:08.000Z,1884
2023-03-27T17:21:24.000Z,1981
2023-03-27T17:22:41.000Z,1773